Time;durP1;ratioP1;P1;durP2;ratioP2;P2;SDS_P1;SDS_P2;PMS_P1;PMS_P2;Temp;Humidity;BMP_temperature;BMP_pressure;BME280_temperature;BME280_humidity;BME280_pressure;Samples;Min_cycle;Max_cycle;Signal;HPM_P1;HPM_P2
2023/10/29 00:02:44;;;;;;;2.53;1.17;;;;;;;12.97;63.76;98164.47;10507872;28;20552;-59
2023/10/29 00:07:46;;;;;;;2.47;0.98;;;;;;;12.89;63.91;98159.16;10508994;28;20039;-59
2023/10/29 00:12:48;;;;;;;0.70;0.68;;;;;;;13.05;63.50;98143.56;10506796;28;20055;-59
2023/10/29 00:17:50;;;;;;;1.55;0.80;;;;;;;13.03;63.33;98142.88;10508406;28;20044;-59
2023/10/29 00:22:52;;;;;;;1.20;0.73;;;;;;;12.95;62.78;98137.56;10507180;28;20215;-59
2023/10/29 00:27:54;;;;;;;1.08;0.68;;;;;;;12.92;63.21;98141.28;10487912;28;20054;-59
2023/10/29 00:32:56;;;;;;;0.75;0.75;;;;;;;12.92;63.32;98136.06;10505001;28;20048;-59
2023/10/29 00:37:58;;;;;;;1.90;1.00;;;;;;;12.93;62.83;98132.47;10507546;28;20052;-59
2023/10/29 00:43:00;;;;;;;1.95;0.80;;;;;;;12.98;63.27;98144.31;10506603;28;20060;-59
2023/10/29 00:48:02;;;;;;;2.58;0.90;;;;;;;13.01;63.43;98139.59;10508263;28;20068;-59
2023/10/29 00:53:06;;;;;;;1.80;0.63;;;;;;;13.02;63.01;98146.50;10506728;28;20142;-59
2023/10/29 00:58:10;;;;;;;2.03;0.70;;;;;;;13.03;62.86;98153.38;10506457;28;20346;-59
2023/10/29 01:03:12;;;;;;;1.15;0.68;;;;;;;13.10;62.82;98159.69;10489038;28;20044;-59
2023/10/29 01:08:15;;;;;;;1.92;0.75;;;;;;;13.17;62.77;98149.41;10506293;28;20101;-59
2023/10/29 01:13:17;;;;;;;0.77;0.73;;;;;;;13.19;62.59;98136.97;10504775;28;20063;-60
2023/10/29 01:18:20;;;;;;;0.70;0.70;;;;;;;12.98;62.74;98127.56;10508068;28;20036;-60
2023/10/29 01:23:23;;;;;;;1.60;0.80;;;;;;;12.98;63.03;98109.22;10514350;28;20032;-59
2023/10/29 01:28:25;;;;;;;0.68;0.60;;;;;;;13.03;62.58;98085.16;10493884;28;20518;-59
2023/10/29 01:33:27;;;;;;;1.20;0.85;;;;;;;13.07;62.85;98067.31;10480573;28;20040;-59
2023/10/29 01:38:30;;;;;;;2.70;0.70;;;;;;;13.14;62.53;98071.78;10496007;28;20166;-59
2023/10/29 01:43:32;;;;;;;0.90;0.90;;;;;;;13.04;62.46;98057.94;10513398;28;20075;-59
2023/10/29 01:48:33;;;;;;;1.45;0.90;;;;;;;12.81;63.18;98047.09;10513556;28;20404;-59
2023/10/29 01:53:36;;;;;;;1.55;1.05;;;;;;;12.56;63.72;98041.75;10480137;28;20104;-59
2023/10/29 01:58:38;;;;;;;1.98;1.00;;;;;;;12.38;64.25;98031.28;10511634;28;20063;-59
2023/10/29 02:03:39;;;;;;;3.95;1.45;;;;;;;12.42;63.85;98074.56;10486100;28;20465;-59
2023/10/29 02:08:42;;;;;;;0.85;0.70;;;;;;;12.56;63.96;98102.91;10513322;28;20431;-59
2023/10/29 02:13:44;;;;;;;4.35;0.85;;;;;;;12.69;64.04;98118.28;10512283;28;20039;-59
2023/10/29 02:18:46;;;;;;;1.23;0.98;;;;;;;12.62;64.45;98112.81;10508332;28;20052;-59
2023/10/29 02:23:48;;;;;;;0.88;0.82;;;;;;;12.68;64.57;98120.06;10487596;28;20070;-59
2023/10/29 02:28:50;;;;;;;2.47;0.93;;;;;;;12.71;64.84;98114.56;10506368;28;20048;-59
2023/10/29 02:33:52;;;;;;;2.38;1.42;;;;;;;12.63;64.94;98108.38;10491510;28;20727;-59
2023/10/29 02:38:54;;;;;;;1.23;0.90;;;;;;;12.61;64.92;98094.59;10493273;28;20056;-59
2023/10/29 02:43:58;;;;;;;4.40;0.90;;;;;;;12.64;65.04;98097.75;10470642;28;20526;-59
2023/10/29 02:49:00;;;;;;;2.53;0.90;;;;;;;12.42;65.96;98077.19;10511812;28;20040;-59
2023/10/29 02:54:02;;;;;;;1.48;0.90;;;;;;;12.67;65.44;98068.59;10511998;28;20056;-59
2023/10/29 02:59:04;;;;;;;2.63;1.15;;;;;;;12.67;65.69;98058.13;10510774;28;21106;-59
2023/10/29 03:04:06;;;;;;;1.52;1.10;;;;;;;12.64;66.08;98053.16;10496487;28;20052;-59
2023/10/29 03:09:09;;;;;;;0.75;0.75;;;;;;;12.72;65.84;98040.13;10500776;28;20048;-59
2023/10/29 03:14:11;;;;;;;0.50;0.50;;;;;;;12.68;66.00;98048.47;10518453;28;20044;-59
2023/10/29 03:19:13;;;;;;;0.70;0.65;;;;;;;12.74;66.00;98043.41;10518590;28;20067;-59
2023/10/29 03:24:15;;;;;;;1.10;0.60;;;;;;;12.71;66.08;98037.66;10493589;28;20732;-59
2023/10/29 03:29:18;;;;;;;4.22;0.88;;;;;;;12.72;66.33;98013.09;10498899;28;20048;-58
2023/10/29 03:34:20;;;;;;;2.70;0.88;;;;;;;12.71;66.33;98014.88;10496608;28;20043;-59
2023/10/29 03:39:22;;;;;;;0.73;0.63;;;;;;;12.74;66.58;98024.25;10516200;28;20047;-59
2023/10/29 03:44:24;;;;;;;1.45;0.90;;;;;;;12.71;66.61;98024.53;10517257;28;20044;-59
2023/10/29 03:49:26;;;;;;;0.90;0.70;;;;;;;12.86;66.43;98021.22;10493736;28;20071;-59
2023/10/29 03:54:28;;;;;;;0.63;0.52;;;;;;;12.76;66.63;98011.81;10517479;28;20044;-59
2023/10/29 03:59:30;;;;;;;3.15;1.33;;;;;;;12.82;66.67;98009.38;10515636;28;20048;-59
2023/10/29 04:04:32;;;;;;;0.82;0.63;;;;;;;12.75;66.98;98008.34;10486602;28;20511;-59
2023/10/29 04:09:34;;;;;;;0.57;0.55;;;;;;;12.74;66.83;98008.50;10510347;28;20049;-59
2023/10/29 04:14:38;;;;;;;1.67;0.80;;;;;;;12.75;66.56;97997.03;10489672;28;20231;-59
2023/10/29 04:19:40;;;;;;;0.82;0.50;;;;;;;12.79;66.32;98001.81;10490102;28;20052;-58
2023/10/29 04:24:42;;;;;;;1.30;0.60;;;;;;;12.69;66.42;97995.84;10502948;28;20054;-59
2023/10/29 04:29:44;;;;;;;1.67;0.80;;;;;;;12.72;66.04;98021.75;10508435;28;20059;-59
2023/10/29 04:34:46;;;;;;;0.68;0.63;;;;;;;12.81;65.52;98023.50;10522300;28;20092;-59
2023/10/29 04:39:50;;;;;;;3.72;1.20;;;;;;;12.86;65.34;98023.03;10489119;28;20044;-59
2023/10/29 04:44:52;;;;;;;5.57;1.17;;;;;;;12.92;64.70;98011.94;10506633;28;20047;-59
2023/10/29 04:49:54;;;;;;;2.10;0.55;;;;;;;12.90;64.91;98012.06;10509419;28;20048;-59
2023/10/29 04:54:55;;;;;;;1.42;0.90;;;;;;;12.92;64.79;97991.75;10513893;28;20130;-59
2023/10/29 04:59:57;;;;;;;2.35;0.77;;;;;;;13.00;64.68;97996.25;10514839;28;20227;-59
2023/10/29 05:04:59;;;;;;;0.60;0.57;;;;;;;13.10;64.62;97965.47;10517609;28;20048;-59
2023/10/29 05:10:02;;;;;;;1.42;1.00;;;;;;;13.09;64.24;97979.56;10515735;28;20488;-60
2023/10/29 05:15:04;;;;;;;1.13;0.77;;;;;;;13.12;64.35;97957.44;10516102;28;20493;-59
2023/10/29 05:20:09;;;;;;;1.50;0.70;;;;;;;13.20;64.57;97976.69;10514138;28;20127;-59
2023/10/29 05:25:11;;;;;;;1.38;0.63;;;;;;;13.11;65.16;97971.56;10515178;28;20083;-59
2023/10/29 05:30:12;;;;;;;1.77;0.90;;;;;;;13.14;64.66;97981.72;10513672;28;20150;-59
2023/10/29 05:35:14;;;;;;;0.50;0.50;;;;;;;13.25;64.40;97990.16;10482026;28;20055;-59
2023/10/29 05:40:16;;;;;;;2.63;0.90;;;;;;;13.09;64.30;97990.06;10514588;28;20040;-60
2023/10/29 05:45:18;;;;;;;5.43;0.80;;;;;;;13.36;64.18;97996.94;10515767;28;20813;-59
2023/10/29 05:50:20;;;;;;;1.55;0.70;;;;;;;13.23;64.58;97970.31;10512313;28;20040;-59
2023/10/29 05:55:23;;;;;;;0.50;0.50;;;;;;;13.22;64.66;97987.84;10515203;28;20055;-60
2023/10/29 06:00:24;;;;;;;0.60;0.60;;;;;;;13.09;64.31;97879.03;10494978;28;20539;-59
2023/10/29 06:05:26;;;;;;;8.10;1.15;;;;;;;13.04;65.11;97949.53;10514325;28;20048;-60
2023/10/29 06:10:28;;;;;;;0.50;0.50;;;;;;;13.08;64.82;97987.59;10512174;28;20040;-59
2023/10/29 06:15:30;;;;;;;1.05;0.40;;;;;;;13.23;64.47;98004.44;10514094;28;20488;-59
2023/10/29 06:20:33;;;;;;;1.52;1.02;;;;;;;13.31;64.20;97994.78;10510372;28;20048;-59
2023/10/29 06:25:36;;;;;;;0.82;0.70;;;;;;;13.30;64.08;98014.16;10513195;28;20039;-60
2023/10/29 06:30:38;;;;;;;0.65;0.57;;;;;;;13.32;63.92;98016.63;10507380;28;20048;-59
2023/10/29 06:35:40;;;;;;;0.73;0.60;;;;;;;13.32;64.07;98038.44;10508568;28;20036;-59
2023/10/29 06:40:42;;;;;;;0.52;0.50;;;;;;;13.36;63.67;98054.72;10511876;28;20726;-59
2023/10/29 06:45:44;;;;;;;0.70;0.43;;;;;;;13.46;63.47;98050.22;10510377;28;20063;-59
2023/10/29 06:50:46;;;;;;;0.98;0.70;;;;;;;13.56;63.32;98061.44;10493680;28;20449;-59
2023/10/29 06:55:48;;;;;;;0.43;0.43;;;;;;;13.55;63.24;98094.78;10512282;28;20045;-59
2023/10/29 07:00:50;;;;;;;0.50;0.50;;;;;;;13.55;63.12;98094.78;10507923;28;20417;-59
2023/10/29 07:05:52;;;;;;;0.47;0.47;;;;;;;13.45;62.67;98099.31;10512715;28;20200;-60
2023/10/29 07:10:56;;;;;;;0.43;0.43;;;;;;;13.59;62.72;98100.53;10493430;28;20047;-60
2023/10/29 07:15:59;;;;;;;0.38;0.38;;;;;;;13.62;62.74;98113.34;10492483;28;20040;-60
2023/10/29 07:21:02;;;;;;;1.00;0.50;;;;;;;13.63;62.71;98115.00;10469994;28;20051;-60
2023/10/29 07:26:04;;;;;;;0.52;0.50;;;;;;;13.77;62.70;98096.03;10510773;28;20400;-59
2023/10/29 07:31:06;;;;;;;0.90;0.60;;;;;;;13.72;62.56;98082.53;10489737;28;20543;-59
2023/10/29 07:36:08;;;;;;;0.63;0.57;;;;;;;13.78;62.62;98072.22;10510162;28;20134;-59
2023/10/29 07:41:10;;;;;;;1.33;0.57;;;;;;;13.81;62.87;98038.75;10506720;28;20496;-60
2023/10/29 07:46:12;;;;;;;0.57;0.57;;;;;;;13.79;62.91;98028.41;10510038;28;20051;-59
2023/10/29 07:51:14;;;;;;;2.15;0.60;;;;;;;13.86;63.06;98078.53;10508166;28;20047;-59
2023/10/29 07:56:16;;;;;;;0.95;0.73;;;;;;;13.85;62.86;98093.47;10508810;28;20052;-59
2023/10/29 08:01:18;;;;;;;1.88;0.73;;;;;;;13.91;62.95;98123.53;10509806;28;20036;-59
2023/10/29 08:06:20;;;;;;;1.55;1.00;;;;;;;13.75;62.94;98127.72;10507410;28;20303;-59
2023/10/29 08:11:22;;;;;;;1.67;0.88;;;;;;;13.79;63.25;98133.50;10508238;28;20291;-59
2023/10/29 08:16:24;;;;;;;1.55;0.80;;;;;;;13.89;63.18;98141.25;10509353;28;20044;-59
2023/10/29 08:21:26;;;;;;;0.93;0.82;;;;;;;13.88;63.30;98135.16;10487638;28;20051;-59
2023/10/29 08:26:29;;;;;;;1.23;0.93;;;;;;;13.85;63.66;98134.66;10483216;28;20051;-59
2023/10/29 08:31:31;;;;;;;1.75;0.90;;;;;;;13.88;63.52;98129.91;10505560;28;20131;-59
2023/10/29 08:36:33;;;;;;;7.50;1.60;;;;;;;13.95;63.57;98132.75;10507380;28;20044;-59
2023/10/29 08:41:35;;;;;;;1.33;0.90;;;;;;;13.80;63.70;98147.47;10505248;28;20043;-61
2023/10/29 08:46:37;;;;;;;2.63;1.13;;;;;;;13.76;63.94;98146.94;10509681;28;20140;-60
2023/10/29 08:51:39;;;;;;;2.25;1.13;;;;;;;13.75;63.96;98150.53;10505878;28;20213;-61
2023/10/29 08:56:41;;;;;;;1.55;1.15;;;;;;;13.71;64.32;98141.31;10507758;28;20047;-60
2023/10/29 09:01:43;;;;;;;1.65;0.77;;;;;;;13.71;64.45;98159.72;10506698;28;20550;-60
2023/10/29 09:06:45;;;;;;;3.20;1.50;;;;;;;13.76;64.21;98165.31;10489514;28;20132;-61
2023/10/29 09:11:53;;;;;;;1.33;1.00;;;;;;;13.72;64.80;98183.19;10502532;28;20036;-61
2023/10/29 09:16:55;;;;;;;2.13;0.90;;;;;;;13.89;64.33;98215.69;10507115;28;20389;-61
2023/10/29 09:21:57;;;;;;;2.30;1.20;;;;;;;13.96;64.42;98221.97;10480159;28;20059;-61
2023/10/29 09:26:59;;;;;;;3.78;1.00;;;;;;;14.17;63.89;98219.78;10504115;28;20051;-60
2023/10/29 09:32:04;;;;;;;2.45;1.10;;;;;;;14.40;63.43;98209.56;10505970;28;20048;-61
2023/10/29 09:37:06;;;;;;;5.57;2.28;;;;;;;14.41;63.38;98183.09;10505539;28;20557;-60
2023/10/29 09:42:11;;;;;;;2.63;1.50;;;;;;;14.64;63.05;98193.09;10513015;28;20051;-61
2023/10/29 09:47:17;;;;;;;4.60;1.20;;;;;;;14.67;62.53;98184.88;10513154;28;20085;-61
2023/10/29 09:52:20;;;;;;;2.47;1.10;;;;;;;14.79;62.40;98194.13;10514256;28;20048;-61
2023/10/29 09:57:24;;;;;;;1.48;0.88;;;;;;;14.87;62.18;98183.63;10513519;28;20040;-60
2023/10/29 10:02:26;;;;;;;5.00;1.50;;;;;;;14.73;62.03;98182.44;10496401;28;20133;-60
2023/10/29 10:07:29;;;;;;;0.82;0.68;;;;;;;14.69;61.24;98182.91;10513827;28;20048;-61
2023/10/29 10:12:31;;;;;;;0.57;0.57;;;;;;;14.66;61.27;98188.47;10511292;28;20028;-61
2023/10/29 10:17:33;;;;;;;1.52;0.98;;;;;;;14.80;60.79;98195.78;10493726;28;20044;-61
2023/10/29 10:22:35;;;;;;;0.60;0.55;;;;;;;14.86;60.32;98192.53;10512179;28;20070;-61
2023/10/29 10:27:51;;;;;;;0.82;0.60;;;;;;;14.90;59.99;98201.75;10511177;28;20052;-60
2023/10/29 10:33:07;;;;;;;0.57;0.57;;;;;;;14.76;60.52;98187.38;10490818;28;20054;-61
2023/10/29 10:38:10;;;;;;;0.90;0.80;;;;;;;14.66;60.52;98160.38;10509072;28;20059;-61
2023/10/29 10:43:19;;;;;;;1.02;0.80;;;;;;;14.59;60.25;98136.50;10491588;28;20070;-60
2023/10/29 10:48:21;;;;;;;1.08;0.70;;;;;;;14.74;59.49;98152.50;10507804;28;20518;-61
2023/10/29 10:53:26;;;;;;;1.38;0.95;;;;;;;14.70;60.36;98159.06;10490550;28;20040;-60
2023/10/29 10:58:29;;;;;;;1.30;0.88;;;;;;;14.57;60.27;98156.09;10511297;28;20048;-60
2023/10/29 11:03:32;;;;;;;0.55;0.55;;;;;;;14.51;60.30;98160.16;10504971;28;20036;-61
2023/10/29 11:08:35;;;;;;;1.45;0.77;;;;;;;14.41;60.78;98166.50;10511318;28;20051;-61
2023/10/29 11:13:38;;;;;;;1.27;0.70;;;;;;;14.16;61.77;98168.22;10506873;28;20060;-61
2023/10/29 11:18:40;;;;;;;0.68;0.68;;;;;;;14.03;62.18;98159.06;10509279;28;20453;-61
2023/10/29 11:23:43;;;;;;;1.20;0.60;;;;;;;14.02;62.48;98199.50;10507121;28;20816;-61
2023/10/29 11:28:45;;;;;;;4.47;1.00;;;;;;;13.97;62.76;98151.81;10508299;28;20048;-61
2023/10/29 11:33:56;;;;;;;1.10;1.00;;;;;;;13.89;63.71;98155.22;10508250;28;20044;-60
2023/10/29 11:39:14;;;;;;;1.25;0.70;;;;;;;13.88;64.24;98143.06;10507428;28;20055;-60
2023/10/29 11:44:27;;;;;;;0.57;0.57;;;;;;;14.12;63.16;98114.28;10506133;28;20052;-60
2023/10/29 11:49:51;;;;;;;0.95;0.73;;;;;;;14.72;62.83;98114.16;10503849;28;20044;-61
2023/10/29 11:55:01;;;;;;;1.70;0.98;;;;;;;14.83;62.23;98148.09;10503672;28;20044;-61
2023/10/29 12:00:04;;;;;;;0.40;0.40;;;;;;;14.65;63.25;98150.00;10499078;28;20054;-61
2023/10/29 12:05:10;;;;;;;1.17;0.75;;;;;;;14.19;64.24;98154.72;10501948;28;20043;-61
2023/10/29 12:10:12;;;;;;;0.63;0.63;;;;;;;14.38;63.73;98162.38;10506779;28;20035;-61
2023/10/29 12:15:15;;;;;;;0.93;0.60;;;;;;;14.56;63.76;98163.16;10490696;28;20090;-60
2023/10/29 12:20:22;;;;;;;0.70;0.70;;;;;;;14.74;63.53;98180.63;10504431;28;20063;-61
2023/10/29 12:25:27;;;;;;;2.10;1.10;;;;;;;14.63;63.93;98168.59;10483350;28;20048;-60
2023/10/29 12:30:43;;;;;;;1.35;0.93;;;;;;;14.55;63.67;98158.06;10505351;28;20069;-61
2023/10/29 12:35:47;;;;;;;3.13;1.20;;;;;;;14.45;64.02;98165.22;10506655;28;20498;-61
2023/10/29 12:41:04;;;;;;;2.10;1.23;;;;;;;14.52;64.16;98139.94;10501274;28;20056;-61
2023/10/29 12:46:09;;;;;;;2.38;1.40;;;;;;;14.66;64.45;98126.16;10502915;28;20393;-61
2023/10/29 12:51:11;;;;;;;1.48;0.98;;;;;;;14.82;64.38;98128.03;10505598;28;20527;-61
2023/10/29 12:56:14;;;;;;;2.28;1.10;;;;;;;14.96;64.33;98140.56;10508218;28;20075;-60
2023/10/29 13:01:17;;;;;;;1.90;1.10;;;;;;;15.31;64.03;98153.41;10505003;28;20044;-61
2023/10/29 13:06:20;;;;;;;0.95;0.60;;;;;;;15.66;63.71;98139.09;10506999;28;20044;-60
2023/10/29 13:11:22;;;;;;;1.40;0.90;;;;;;;15.74;62.94;98123.25;10506348;28;20040;-61
2023/10/29 13:16:24;;;;;;;0.60;0.60;;;;;;;15.77;62.77;98117.66;10517216;28;20047;-61
2023/10/29 13:21:26;;;;;;;1.27;0.77;;;;;;;16.22;62.01;98097.56;10515806;28;20063;-61
2023/10/29 13:26:28;;;;;;;0.82;0.70;;;;;;;16.05;61.15;98077.56;10514595;28;20154;-61
2023/10/29 13:31:30;;;;;;;0.88;0.52;;;;;;;15.89;61.86;98085.53;10511934;28;20286;-61
2023/10/29 13:36:32;;;;;;;0.68;0.60;;;;;;;15.89;61.73;98045.97;10515199;28;20513;-61
2023/10/29 13:41:34;;;;;;;0.35;0.35;;;;;;;16.14;61.13;98076.50;10490633;28;20052;-60
2023/10/29 13:46:36;;;;;;;3.67;0.60;;;;;;;16.16;61.14;98056.06;10513277;28;20118;-61
2023/10/29 13:51:39;;;;;;;0.60;0.40;;;;;;;15.84;61.07;98069.38;10514825;28;20044;-60
2023/10/29 13:56:41;;;;;;;0.68;0.60;;;;;;;15.68;61.18;98097.59;10513665;28;20553;-60
2023/10/29 14:01:43;;;;;;;0.30;0.20;;;;;;;15.69;60.73;98109.78;10512294;28;20467;-61
2023/10/29 14:06:46;;;;;;;0.40;0.40;;;;;;;15.65;60.78;98113.75;10480186;28;20424;-61
2023/10/29 14:11:48;;;;;;;0.90;0.73;;;;;;;15.47;60.65;98115.72;10512286;28;20076;-61
2023/10/29 14:16:50;;;;;;;0.40;0.30;;;;;;;15.33;61.09;98102.22;10509732;28;20134;-61
2023/10/29 14:21:54;;;;;;;0.22;0.22;;;;;;;14.88;61.65;98087.91;10512267;28;20131;-61
2023/10/29 14:26:58;;;;;;;0.38;0.38;;;;;;;14.71;62.23;98083.59;10511422;28;20515;-61
2023/10/29 14:32:00;;;;;;;0.30;0.30;;;;;;;14.49;62.33;98070.06;10511875;28;20044;-61
2023/10/29 14:37:02;;;;;;;0.20;0.20;;;;;;;14.33;63.01;98050.78;10510378;28;20036;-61
2023/10/29 14:42:04;;;;;;;0.43;0.43;;;;;;;14.26;63.51;98069.00;10511970;28;20412;-61
2023/10/29 14:47:06;;;;;;;0.30;0.30;;;;;;;14.26;63.32;98058.47;10492866;28;20043;-61
2023/10/29 14:52:08;;;;;;;0.52;0.50;;;;;;;14.19;63.85;98048.75;10510488;28;20044;-61
2023/10/29 14:57:11;;;;;;;1.35;0.30;;;;;;;14.20;63.94;98035.44;10509939;28;21650;-61
2023/10/29 15:02:30;;;;;;;0.50;0.28;;;;;;;14.22;63.86;98030.84;10504144;28;20161;-61
2023/10/29 15:07:31;;;;;;;0.30;0.30;;;;;;;14.10;64.10;98081.25;10510890;28;20109;-61
2023/10/29 15:12:35;;;;;;;0.43;0.43;;;;;;;14.08;63.99;98068.28;10507620;28;20523;-61
2023/10/29 15:17:37;;;;;;;0.40;0.35;;;;;;;14.02;63.84;98089.94;10510352;28;20121;-61
2023/10/29 15:22:39;;;;;;;1.27;0.40;;;;;;;13.88;64.65;98108.09;10507588;28;20166;-61
2023/10/29 15:27:41;;;;;;;0.28;0.28;;;;;;;13.85;64.39;98113.66;10506559;28;20082;-61
2023/10/29 15:32:42;;;;;;;0.30;0.30;;;;;;;13.78;64.23;98103.75;10508002;28;20044;-61
2023/10/29 15:37:44;;;;;;;1.75;1.05;;;;;;;13.72;64.29;98083.38;10507528;28;20044;-61
2023/10/29 15:42:46;;;;;;;2.30;1.63;;;;;;;13.69;64.41;98127.53;10487576;28;20040;-61
2023/10/29 15:47:48;;;;;;;0.70;0.65;;;;;;;13.60;64.46;98133.69;10507828;28;20044;-61
2023/10/29 15:52:51;;;;;;;0.57;0.57;;;;;;;13.48;64.74;98133.13;10508100;28;20083;-61
2023/10/29 15:57:52;;;;;;;0.52;0.45;;;;;;;13.39;64.45;98146.31;10507605;28;20044;-61
2023/10/29 16:02:54;;;;;;;0.60;0.40;;;;;;;13.33;64.64;98133.81;10489066;28;20586;-61
2023/10/29 16:07:56;;;;;;;1.13;0.50;;;;;;;13.34;64.57;98109.19;10507965;28;20052;-61
2023/10/29 16:13:01;;;;;;;0.70;0.60;;;;;;;13.24;64.79;98134.69;10486529;28;20458;-61
2023/10/29 16:18:06;;;;;;;1.08;0.30;;;;;;;13.06;65.01;98155.72;10507995;28;20894;-61
2023/10/29 16:23:08;;;;;;;0.32;0.32;;;;;;;12.94;65.31;98165.59;10505097;28;20046;-61
2023/10/29 16:28:11;;;;;;;0.40;0.40;;;;;;;12.93;65.29;98163.13;10507246;28;20048;-61
2023/10/29 16:33:12;;;;;;;1.00;0.68;;;;;;;12.89;64.99;98188.84;10505502;28;20044;-61
2023/10/29 16:38:15;;;;;;;1.17;0.55;;;;;;;12.93;64.98;98216.44;10490666;28;20036;-61
2023/10/29 16:43:17;;;;;;;1.05;0.40;;;;;;;12.97;64.49;98161.84;10508290;28;20396;-61
2023/10/29 16:48:19;;;;;;;1.55;0.93;;;;;;;12.94;63.95;98170.03;10510233;28;20050;-61
2023/10/29 16:53:21;;;;;;;2.53;0.93;;;;;;;12.92;64.10;98130.81;10515725;28;20052;-61
2023/10/29 16:58:23;;;;;;;0.70;0.50;;;;;;;12.86;63.57;98147.16;10512273;28;20044;-61
2023/10/29 17:03:25;;;;;;;0.63;0.60;;;;;;;12.74;63.26;98164.06;10514165;28;20040;-59
2023/10/29 17:08:27;;;;;;;1.27;0.60;;;;;;;12.51;63.19;98186.44;10495948;28;20063;-60
2023/10/29 17:13:29;;;;;;;2.28;0.77;;;;;;;12.44;63.18;98208.97;10512999;28;20036;-60
2023/10/29 17:18:32;;;;;;;3.67;0.47;;;;;;;12.35;63.56;98190.66;10512145;28;20055;-60
2023/10/29 17:23:34;;;;;;;0.50;0.50;;;;;;;12.21;63.48;98202.41;10512449;28;20101;-60
2023/10/29 17:28:36;;;;;;;0.77;0.45;;;;;;;12.16;63.73;98199.38;10509673;28;20050;-60
2023/10/29 17:33:39;;;;;;;3.63;1.00;;;;;;;12.10;64.00;98207.81;10499402;28;20655;-60
2023/10/29 17:38:42;;;;;;;1.13;0.70;;;;;;;12.04;64.04;98217.09;10503039;28;20051;-60
2023/10/29 17:43:46;;;;;;;1.85;0.80;;;;;;;11.92;63.90;98212.97;10510497;28;20048;-60
2023/10/29 17:48:51;;;;;;;1.25;0.70;;;;;;;12.00;63.87;98231.44;10506058;28;20055;-60
2023/10/29 17:53:54;;;;;;;0.90;0.82;;;;;;;11.95;63.54;98230.19;10507470;28;20044;-60
2023/10/29 17:58:56;;;;;;;0.88;0.63;;;;;;;11.94;63.78;98232.00;10505856;28;20178;-60
2023/10/29 18:03:59;;;;;;;0.60;0.60;;;;;;;11.92;63.98;98244.41;10511591;28;20051;-60
2023/10/29 18:09:02;;;;;;;1.45;0.73;;;;;;;11.93;63.92;98248.69;10475418;28;20507;-60
2023/10/29 18:14:04;;;;;;;3.25;0.93;;;;;;;11.88;63.97;98268.41;10508916;28;20048;-60
2023/10/29 18:19:06;;;;;;;1.63;0.80;;;;;;;11.88;63.77;98271.03;10511232;28;20044;-60
2023/10/29 18:24:08;;;;;;;1.40;0.70;;;;;;;11.87;63.70;98275.44;10508002;28;20056;-60
2023/10/29 18:29:10;;;;;;;1.05;0.57;;;;;;;11.77;63.93;98281.66;10503042;28;20076;-60
2023/10/29 18:34:12;;;;;;;2.40;1.70;;;;;;;11.87;63.63;98290.31;10509574;28;20048;-60
2023/10/29 18:39:14;;;;;;;1.95;1.17;;;;;;;11.81;63.42;98293.50;10513178;28;20044;-59
2023/10/29 18:44:16;;;;;;;0.77;0.73;;;;;;;11.85;63.71;98294.88;10507257;28;20072;-60
2023/10/29 18:49:18;;;;;;;1.35;0.80;;;;;;;11.82;63.86;98297.78;10511520;28;20051;-60
2023/10/29 18:54:20;;;;;;;2.13;0.93;;;;;;;11.82;64.16;98305.63;10500311;28;20046;-60
2023/10/29 18:59:22;;;;;;;2.45;1.08;;;;;;;11.72;64.11;98310.06;10479311;28;20044;-60
2023/10/29 19:04:24;;;;;;;0.82;0.73;;;;;;;11.69;64.33;98326.03;10508771;28;20044;-60
2023/10/29 19:09:26;;;;;;;1.95;0.93;;;;;;;11.74;64.20;98334.31;10502676;28;20050;-60
2023/10/29 19:14:31;;;;;;;1.55;0.95;;;;;;;11.67;64.60;98354.97;10505627;28;20733;-60
2023/10/29 19:19:33;;;;;;;0.73;0.63;;;;;;;11.68;64.31;98368.91;10512712;28;20109;-60
2023/10/29 19:24:38;;;;;;;2.00;1.10;;;;;;;11.61;64.90;98376.47;10510574;28;20047;-60
2023/10/29 19:29:40;;;;;;;2.38;1.20;;;;;;;11.59;65.11;98393.28;10506313;28;20050;-60
2023/10/29 19:34:42;;;;;;;2.45;0.75;;;;;;;11.55;64.88;98397.97;10482948;28;20044;-60
2023/10/29 19:39:44;;;;;;;2.65;1.42;;;;;;;11.53;65.15;98414.75;10508534;28;20154;-60
2023/10/29 19:44:46;;;;;;;1.70;1.15;;;;;;;11.49;65.41;98405.53;10507301;28;20063;-60
2023/10/29 19:49:48;;;;;;;1.55;0.95;;;;;;;11.48;65.16;98420.38;10481536;28;20059;-60
2023/10/29 19:54:55;;;;;;;1.20;0.90;;;;;;;11.51;65.57;98432.41;10510266;28;20043;-60
2023/10/29 19:59:57;;;;;;;0.80;0.80;;;;;;;11.51;65.63;98424.53;10464315;28;20044;-59
2023/10/29 20:04:59;;;;;;;2.55;0.57;;;;;;;11.52;65.59;98426.22;10489544;28;20044;-60
2023/10/29 20:10:05;;;;;;;1.58;0.90;;;;;;;11.54;65.39;98429.53;10499745;28;20048;-60
2023/10/29 20:15:09;;;;;;;3.08;1.40;;;;;;;11.51;65.51;98424.53;10496636;28;20666;-60
2023/10/29 20:20:11;;;;;;;1.70;0.80;;;;;;;11.49;65.51;98442.16;10475961;28;20423;-59
2023/10/29 20:25:13;;;;;;;1.48;0.68;;;;;;;11.49;65.56;98448.25;10501395;28;20040;-59
2023/10/29 20:30:15;;;;;;;0.70;0.70;;;;;;;11.40;65.79;98479.63;10482758;28;20501;-59
2023/10/29 20:35:17;;;;;;;2.22;0.57;;;;;;;11.41;65.82;98479.50;10501031;28;20446;-60
2023/10/29 20:40:20;;;;;;;2.10;0.90;;;;;;;11.49;65.64;98481.44;10501985;28;20153;-59
2023/10/29 20:45:22;;;;;;;0.90;0.57;;;;;;;11.43;65.62;98487.19;10497996;28;20176;-60
2023/10/29 20:50:24;;;;;;;0.75;0.47;;;;;;;11.46;65.36;98502.66;10515632;28;20048;-60
2023/10/29 20:55:26;;;;;;;1.95;0.80;;;;;;;11.42;65.63;98496.84;10505504;28;20044;-60
2023/10/29 21:00:28;;;;;;;1.27;0.32;;;;;;;11.44;65.50;98501.97;10504800;28;20059;-60
2023/10/29 21:05:34;;;;;;;4.18;0.75;;;;;;;11.40;65.49;98500.56;10505903;28;20507;-60
2023/10/29 21:10:36;;;;;;;1.65;0.70;;;;;;;11.46;65.48;98500.03;10501964;28;20047;-60
2023/10/29 21:15:40;;;;;;;0.70;0.70;;;;;;;11.55;65.30;98507.09;10502134;28;20040;-60
2023/10/29 21:20:44;;;;;;;0.57;0.43;;;;;;;11.52;65.14;98510.00;10495877;28;20048;-59
2023/10/29 21:25:46;;;;;;;1.17;1.08;;;;;;;11.39;65.52;98512.81;10497762;28;20491;-59
2023/10/29 21:30:49;;;;;;;0.52;0.47;;;;;;;11.33;65.56;98518.59;10471823;28;20500;-59
2023/10/29 21:35:51;;;;;;;4.18;1.05;;;;;;;11.30;65.77;98532.75;10502563;28;20433;-59
2023/10/29 21:40:53;;;;;;;3.13;1.05;;;;;;;11.35;65.38;98536.75;10527101;28;20649;-60
2023/10/29 21:45:55;;;;;;;1.08;0.70;;;;;;;11.40;65.42;98539.84;10505955;28;20182;-59
2023/10/29 21:51:01;;;;;;;0.73;0.50;;;;;;;11.44;65.25;98541.22;10513571;28;20047;-60
2023/10/29 21:56:07;;;;;;;1.88;0.70;;;;;;;11.47;65.16;98540.97;10512005;28;20138;-60
2023/10/29 22:01:11;;;;;;;2.25;0.80;;;;;;;11.44;65.06;98554.31;10513244;28;20443;-59
2023/10/29 22:06:13;;;;;;;4.65;1.08;;;;;;;11.41;64.83;98550.16;10512173;28;20040;-59
2023/10/29 22:11:15;;;;;;;2.17;1.05;;;;;;;11.43;65.06;98566.56;10480913;28;20097;-59
2023/10/29 22:16:18;;;;;;;0.98;0.70;;;;;;;11.50;65.02;98565.06;10508629;28;20770;-59
2023/10/29 22:21:21;;;;;;;1.52;0.80;;;;;;;11.57;64.89;98568.00;10497037;28;20133;-59
2023/10/29 22:26:23;;;;;;;1.45;0.47;;;;;;;11.62;64.77;98565.84;10508267;28;20818;-59
2023/10/29 22:31:25;;;;;;;2.58;1.00;;;;;;;11.70;64.54;98573.88;10512372;28;20129;-59
2023/10/29 22:36:29;;;;;;;5.88;1.50;;;;;;;11.73;64.48;98555.25;10489811;28;20131;-59
2023/10/29 22:41:32;;;;;;;1.08;0.63;;;;;;;11.76;64.33;98578.59;10514459;28;20418;-59
2023/10/29 22:46:34;;;;;;;1.60;0.93;;;;;;;11.85;64.59;98599.56;10511984;28;20044;-60
2023/10/29 22:51:39;;;;;;;2.15;1.00;;;;;;;11.90;64.22;98607.03;10512537;28;20042;-59
2023/10/29 22:56:41;;;;;;;2.30;1.00;;;;;;;11.92;64.27;98605.13;10513589;28;20044;-59
2023/10/29 23:01:43;;;;;;;2.85;1.10;;;;;;;11.72;64.40;98616.47;10511843;28;20047;-59
2023/10/29 23:06:45;;;;;;;7.32;1.20;;;;;;;11.64;64.74;98624.16;10486602;28;20066;-59
2023/10/29 23:11:47;;;;;;;2.00;0.75;;;;;;;11.58;64.79;98643.00;10512322;28;20048;-59
2023/10/29 23:16:49;;;;;;;2.25;1.10;;;;;;;11.39;64.90;98637.63;10512039;28;20062;-59
2023/10/29 23:21:51;;;;;;;1.95;1.00;;;;;;;11.31;65.25;98630.44;10512656;28;20407;-59
2023/10/29 23:26:52;;;;;;;3.95;1.20;;;;;;;11.28;65.47;98639.34;10511241;28;20052;-59